createdAt,value
2017-12-10T00:01:05.687Z,100211.83
2017-12-10T00:03:33.219Z,100209.16
2017-12-10T00:06:00.748Z,100211.31
2017-12-10T00:08:28.277Z,100205.95
2017-12-10T00:10:55.878Z,100196.75
2017-12-10T00:13:23.401Z,100209.66
2017-12-10T00:15:50.981Z,100206.57
2017-12-10T00:18:18.512Z,100209.16
2017-12-10T00:20:46.043Z,100206.98
2017-12-10T00:23:13.564Z,100208.41
2017-12-10T00:25:41.092Z,100195.17
2017-12-10T00:28:08.646Z,100203.11
2017-12-10T00:30:36.240Z,100200.80
2017-12-10T00:33:04.583Z,100199.07
2017-12-10T00:35:32.176Z,100201.77
2017-12-10T00:37:59.696Z,100193.84
2017-12-10T00:40:27.210Z,100190.02
2017-12-10T00:42:54.726Z,100192.05
2017-12-10T00:45:22.255Z,100196.91
2017-12-10T00:47:49.942Z,100200.14
2017-12-10T00:50:17.488Z,100193.50
2017-12-10T00:52:45.171Z,100198.22
2017-12-10T00:55:13.069Z,100195.09
2017-12-10T00:57:40.604Z,100198.18
2017-12-10T01:00:08.137Z,100190.27
2017-12-10T01:02:35.659Z,100188.50
2017-12-10T01:05:03.185Z,100190.23
2017-12-10T01:07:30.713Z,100189.74
2017-12-10T01:09:58.259Z,100185.84
2017-12-10T01:12:25.902Z,100186.22
2017-12-10T01:14:53.420Z,100178.41
2017-12-10T01:17:20.954Z,100181.89
2017-12-10T01:19:48.480Z,100184.09
2017-12-10T01:22:16.035Z,100183.72
2017-12-10T01:24:43.559Z,100181.81
2017-12-10T01:27:11.085Z,100177.47
2017-12-10T01:29:38.716Z,100181.67
2017-12-10T01:32:06.246Z,100167.03
2017-12-10T01:34:33.769Z,100161.98
2017-12-10T01:37:01.291Z,100164.77
2017-12-10T01:39:28.817Z,100166.38
2017-12-10T01:41:56.341Z,100161.27
2017-12-10T01:44:23.854Z,100163.45
2017-12-10T01:46:51.424Z,100154.55
2017-12-10T01:49:18.950Z,100155.86
2017-12-10T01:51:46.480Z,100163.91
2017-12-10T01:54:14.016Z,100149.36
2017-12-10T01:56:41.562Z,100152.95
2017-12-10T01:59:09.095Z,100145.03
2017-12-10T02:01:36.674Z,100152.11
2017-12-10T02:04:04.204Z,100143.45
2017-12-10T02:06:31.734Z,100143.02
2017-12-10T02:08:59.268Z,100146.06
2017-12-10T02:11:26.785Z,100140.96
2017-12-10T02:13:54.310Z,100140.94
2017-12-10T02:16:21.841Z,100137.82
2017-12-10T02:18:49.371Z,100131.27
2017-12-10T02:21:16.958Z,100119.28
2017-12-10T02:23:44.476Z,100119.41
2017-12-10T02:26:12.002Z,100123.26
2017-12-10T02:28:39.514Z,100116.78
2017-12-10T02:31:07.037Z,100107.45
2017-12-10T02:33:34.584Z,100104.93
2017-12-10T02:36:02.106Z,100106.64
2017-12-10T02:38:29.617Z,100098.27
2017-12-10T02:40:57.136Z,100092.98
2017-12-10T02:43:24.684Z,100088.70
2017-12-10T02:45:52.212Z,100086.97
2017-12-10T02:48:19.743Z,100078.69
2017-12-10T02:50:47.262Z,100083.48
2017-12-10T02:53:14.774Z,100082.23
2017-12-10T02:55:42.310Z,100072.15
2017-12-10T02:58:09.822Z,100066.04
2017-12-10T03:00:37.338Z,100069.17
2017-12-10T03:03:04.866Z,100058.65
2017-12-10T03:05:32.412Z,100055.70
2017-12-10T03:07:59.944Z,100053.03
2017-12-10T03:10:28.364Z,100054.89
2017-12-10T03:12:55.895Z,100052.21
2017-12-10T03:15:23.423Z,100051.86
2017-12-10T03:17:51.055Z,100054.03
2017-12-10T03:20:18.592Z,100047.01
2017-12-10T03:22:46.103Z,100053.67
2017-12-10T03:25:13.770Z,100049.17
2017-12-10T03:27:41.268Z,100042.14
2017-12-10T03:30:08.853Z,100040.02
2017-12-10T03:32:36.403Z,100040.96
2017-12-10T03:35:03.972Z,100037.39
2017-12-10T03:37:31.513Z,100027.41
2017-12-10T03:39:59.017Z,100026.00
2017-12-10T03:42:26.542Z,100019.91
2017-12-10T03:44:54.062Z,100016.41
2017-12-10T03:47:21.585Z,100016.41
2017-12-10T03:49:49.099Z,100013.77
2017-12-10T03:52:16.623Z,100010.69
2017-12-10T03:54:44.130Z,100007.27
2017-12-10T03:57:11.641Z,99997.59
2017-12-10T03:59:39.162Z,99991.52
2017-12-10T04:02:06.668Z,99989.81
2017-12-10T04:04:34.206Z,99988.16
2017-12-10T04:07:01.723Z,99989.45
2017-12-10T04:09:29.232Z,99995.72
2017-12-10T04:11:56.845Z,99993.47
2017-12-10T04:14:24.355Z,99993.56
2017-12-10T04:16:51.870Z,99991.80
2017-12-10T04:19:19.381Z,99985.23
2017-12-10T04:21:46.901Z,99984.84
2017-12-10T04:24:14.420Z,99983.95
2017-12-10T04:26:41.931Z,99987.48
2017-12-10T04:29:09.446Z,99985.28
2017-12-10T04:31:36.960Z,99983.97
2017-12-10T04:34:04.592Z,99983.52
2017-12-10T04:36:32.111Z,99979.11
2017-12-10T04:38:59.624Z,99980.42
2017-12-10T04:41:27.130Z,99979.45
2017-12-10T04:43:54.647Z,99977.23
2017-12-10T04:46:22.285Z,99967.98
2017-12-10T04:48:49.848Z,99971.06
2017-12-10T04:51:17.372Z,99962.80
2017-12-10T04:53:44.896Z,99963.66
2017-12-10T04:56:12.410Z,99968.10
2017-12-10T04:58:39.917Z,99961.09
2017-12-10T05:01:07.441Z,99954.96
2017-12-10T05:03:34.942Z,99958.02
2017-12-10T05:06:02.462Z,99948.89
2017-12-10T05:08:29.968Z,99945.77
2017-12-10T05:10:57.480Z,99943.50
2017-12-10T05:13:24.989Z,99940.06
2017-12-10T05:15:52.510Z,99935.22
2017-12-10T05:18:20.026Z,99932.06
2017-12-10T05:20:47.533Z,99926.78
2017-12-10T05:23:15.041Z,99922.39
2017-12-10T05:25:42.566Z,99914.53
2017-12-10T05:28:10.098Z,99910.99
2017-12-10T05:30:37.654Z,99903.98
2017-12-10T05:33:05.165Z,99904.40
2017-12-10T05:35:32.682Z,99896.00
2017-12-10T05:38:00.205Z,99893.48
2017-12-10T05:40:27.719Z,99893.41
2017-12-10T05:42:55.238Z,99892.52
2017-12-10T05:45:22.781Z,99886.09
2017-12-10T05:47:50.292Z,99889.55
2017-12-10T05:50:17.812Z,99892.61
2017-12-10T05:52:45.313Z,99882.50
2017-12-10T05:55:12.843Z,99877.20
2017-12-10T05:57:40.356Z,99871.83
2017-12-10T06:00:07.864Z,99870.98
2017-12-10T06:02:35.377Z,99860.36
2017-12-10T06:05:02.893Z,99866.95
2017-12-10T06:07:30.411Z,99862.56
2017-12-10T06:09:57.920Z,99861.16
2017-12-10T06:12:25.558Z,99859.84
2017-12-10T06:14:53.113Z,99844.03
2017-12-10T06:17:20.613Z,99833.53
2017-12-10T06:19:48.244Z,99827.44
2017-12-10T06:22:15.775Z,99820.39
2017-12-10T06:24:43.290Z,99821.28
2017-12-10T06:27:10.802Z,99816.97
2017-12-10T06:29:38.309Z,99807.66
2017-12-10T06:32:05.814Z,99806.84
2017-12-10T06:34:33.390Z,99805.08
2017-12-10T06:37:00.892Z,99791.55
2017-12-10T06:39:28.397Z,99800.34
2017-12-10T06:41:55.902Z,99798.58
2017-12-10T06:44:23.413Z,99801.77
2017-12-10T06:46:50.929Z,99782.40
2017-12-10T06:49:18.542Z,99783.18
2017-12-10T06:51:50.508Z,99776.58
2017-12-10T06:54:18.085Z,99774.83
2017-12-10T06:56:45.605Z,99773.55
2017-12-10T06:59:13.121Z,99768.31
2017-12-10T07:01:40.636Z,99775.65
2017-12-10T07:04:08.213Z,99776.62
2017-12-10T07:06:35.723Z,99774.89
2017-12-10T07:09:03.253Z,99766.06
2017-12-10T07:11:30.765Z,99758.19
2017-12-10T07:13:58.270Z,99750.60
2017-12-10T07:16:25.778Z,99755.05
2017-12-10T07:18:53.295Z,99747.57
2017-12-10T07:21:20.804Z,99741.80
2017-12-10T07:23:48.309Z,99738.56
2017-12-10T07:26:15.817Z,99732.98
2017-12-10T07:28:43.339Z,99731.66
2017-12-10T07:31:10.841Z,99727.19
2017-12-10T07:33:38.340Z,99720.15
2017-12-10T07:36:05.846Z,99713.47
2017-12-10T07:38:33.360Z,99708.89
2017-12-10T07:41:00.985Z,99697.23
2017-12-10T07:43:28.490Z,99698.45
2017-12-10T07:45:56.004Z,99693.86
2017-12-10T07:48:23.518Z,99692.80
2017-12-10T07:50:51.018Z,99694.56
2017-12-10T07:53:18.526Z,99688.61
2017-12-10T07:55:46.045Z,99686.45
2017-12-10T07:58:13.566Z,99676.80
2017-12-10T08:00:41.085Z,99677.08
2017-12-10T08:03:08.595Z,99667.34
2017-12-10T08:05:36.115Z,99663.24
2017-12-10T08:08:03.741Z,99659.22
2017-12-10T08:10:31.246Z,99657.97
2017-12-10T08:12:58.745Z,99659.88
2017-12-10T08:15:26.245Z,99651.48
2017-12-10T08:17:53.760Z,99651.20
2017-12-10T08:20:21.269Z,99650.06
2017-12-10T08:22:48.795Z,99647.33
2017-12-10T08:25:16.326Z,99639.90
2017-12-10T08:27:43.838Z,99632.72
2017-12-10T08:30:11.343Z,99622.12
2017-12-10T08:32:38.854Z,99635.78
2017-12-10T08:35:06.483Z,99625.80
2017-12-10T08:37:34.000Z,99631.45
2017-12-10T08:40:01.509Z,99626.68
2017-12-10T08:42:29.029Z,99620.17
2017-12-10T08:44:56.542Z,99609.56
2017-12-10T08:47:24.060Z,99600.86
2017-12-10T08:49:51.585Z,99604.61
2017-12-10T08:52:19.346Z,99603.48
2017-12-10T08:54:46.856Z,99594.73
2017-12-10T08:57:14.371Z,99586.06
2017-12-10T08:59:41.899Z,99576.38
2017-12-10T09:02:09.408Z,99575.83
2017-12-10T09:04:36.910Z,99563.08
2017-12-10T09:07:04.438Z,99556.88
2017-12-10T09:09:31.947Z,99546.67
2017-12-10T09:11:59.470Z,99547.48
2017-12-10T09:14:26.980Z,99537.64
2017-12-10T09:16:54.514Z,99534.83
2017-12-10T09:19:22.013Z,99533.48
2017-12-10T09:21:49.523Z,99519.72
2017-12-10T09:24:17.044Z,99516.55
2017-12-10T09:26:44.624Z,99515.06
2017-12-10T09:29:12.137Z,99500.55
2017-12-10T09:31:39.659Z,99495.38
2017-12-10T09:34:07.166Z,99504.34
2017-12-10T09:36:34.673Z,99484.97
2017-12-10T09:39:02.186Z,99487.19
2017-12-10T09:41:29.716Z,99480.59
2017-12-10T09:43:57.232Z,99471.74
2017-12-10T09:46:24.739Z,99470.91
2017-12-10T09:48:52.254Z,99470.70
2017-12-10T09:51:19.771Z,99450.89
2017-12-10T11:15:44.391Z,99182.66
2017-12-10T11:18:11.947Z,99170.24
2017-12-10T11:20:40.674Z,99173.56
2017-12-10T11:23:08.181Z,99166.03
2017-12-10T11:25:35.744Z,99168.55
2017-12-10T11:28:03.402Z,99170.81
2017-12-10T11:30:30.933Z,99159.83
2017-12-10T11:32:58.459Z,99141.65
2017-12-10T11:35:26.009Z,99131.28
2017-12-10T11:37:53.523Z,99118.63
2017-12-10T11:40:21.042Z,99110.73
2017-12-10T11:42:48.669Z,99093.08
2017-12-10T11:45:16.339Z,99086.56
2017-12-10T11:47:43.862Z,99077.75
2017-12-10T11:50:11.378Z,99074.87
2017-12-10T11:52:38.887Z,99071.09
2017-12-10T11:55:06.396Z,99067.50
2017-12-10T11:57:33.930Z,99067.86
2017-12-10T12:00:01.460Z,99042.48
2017-12-10T12:02:29.019Z,99034.22
2017-12-10T12:04:56.544Z,99017.25
2017-12-10T12:07:24.174Z,99013.52
2017-12-10T12:09:51.697Z,99010.55
2017-12-10T12:12:19.270Z,99003.61
2017-12-10T12:14:46.830Z,99004.84
2017-12-10T12:17:14.338Z,99004.84
2017-12-10T12:19:41.867Z,98994.69
2017-12-10T12:22:09.373Z,98986.14
2017-12-10T12:24:36.880Z,98968.66
2017-12-10T12:27:04.425Z,98965.41
2017-12-10T12:29:31.980Z,98959.25
2017-12-10T12:31:59.529Z,98937.39
2017-12-10T12:34:27.045Z,98923.67
2017-12-10T12:36:54.560Z,98934.19
2017-12-10T12:39:22.064Z,98908.63
2017-12-10T12:41:49.566Z,98890.94
2017-12-10T12:44:17.108Z,98894.49
2017-12-10T12:46:44.697Z,98876.20
2017-12-10T12:49:12.252Z,98875.86
2017-12-10T12:51:39.762Z,98872.00
2017-12-10T12:54:07.281Z,98869.64
2017-12-10T12:56:34.792Z,98874.53
2017-12-10T12:59:02.321Z,98860.13
2017-12-10T13:04:09.914Z,98858.21
2017-12-10T13:06:37.426Z,98855.59
2017-12-10T13:09:04.939Z,98849.88
2017-12-10T13:11:32.477Z,98846.03
2017-12-10T13:13:59.982Z,98839.80
2017-12-10T13:16:27.586Z,98826.95
2017-12-10T13:18:55.102Z,98821.63
2017-12-10T13:21:22.650Z,98822.44
2017-12-10T13:23:50.165Z,98801.78
2017-12-10T13:26:17.739Z,98792.25
2017-12-10T13:28:45.305Z,98779.25
2017-12-10T13:31:12.819Z,98764.11
2017-12-10T13:33:41.005Z,98764.64
2017-12-10T13:36:08.513Z,98758.86
2017-12-10T13:38:36.022Z,98742.02
2017-12-10T13:41:03.535Z,98711.88
2017-12-10T13:43:31.039Z,98714.66
2017-12-10T13:45:58.548Z,98699.64
2017-12-10T13:48:26.046Z,98695.19
2017-12-10T13:50:53.549Z,98679.70
2017-12-10T13:53:21.061Z,98663.73
2017-12-10T13:55:48.567Z,98656.20
2017-12-10T13:58:16.087Z,98648.47
2017-12-10T14:00:43.603Z,98645.05
2017-12-10T14:03:11.106Z,98652.78
2017-12-10T14:05:38.612Z,98623.72
2017-12-10T14:08:06.125Z,98623.26
2017-12-10T14:10:33.629Z,98603.65
2017-12-10T14:13:01.131Z,98597.66
2017-12-10T14:15:28.658Z,98598.30
2017-12-10T14:17:56.177Z,98618.20
2017-12-10T14:20:23.697Z,98601.94
2017-12-10T14:22:51.198Z,98593.23
2017-12-10T14:25:18.692Z,98575.20
2017-12-10T14:27:46.196Z,98566.89
2017-12-10T14:30:13.698Z,98569.50
2017-12-10T14:32:41.206Z,98567.43
2017-12-10T14:35:08.810Z,98573.99
2017-12-10T14:37:36.318Z,98564.40
2017-12-10T14:40:03.831Z,98565.80
2017-12-10T14:42:31.346Z,98557.31
2017-12-10T14:44:58.853Z,98563.58
2017-12-10T14:47:26.349Z,98560.41
2017-12-10T14:49:53.858Z,98553.45
2017-12-10T14:52:21.358Z,98549.42
2017-12-10T14:54:48.874Z,98551.64
2017-12-10T14:57:16.371Z,98556.59
2017-12-10T14:59:43.891Z,98556.13
2017-12-10T15:02:11.396Z,98553.56
2017-12-10T15:04:38.902Z,98565.37
2017-12-10T15:07:06.410Z,98573.85
2017-12-10T15:09:33.908Z,98559.23
2017-12-10T15:12:01.423Z,98561.48
2017-12-10T15:14:28.933Z,98568.50
2017-12-10T15:16:56.438Z,98561.55
2017-12-10T15:19:23.947Z,98549.61
2017-12-10T15:21:51.459Z,98541.45
2017-12-10T15:24:18.980Z,98515.86
2017-12-10T15:26:46.483Z,98487.66
2017-12-10T15:29:13.991Z,98490.05
2017-12-10T15:31:41.502Z,98474.63
2017-12-10T15:34:09.015Z,98477.27
2017-12-10T15:36:36.517Z,98458.59
2017-12-10T15:39:04.032Z,98458.09
2017-12-10T15:41:31.564Z,98433.85
2017-12-10T15:43:59.066Z,98425.44
2017-12-10T15:46:26.582Z,98422.95
2017-12-10T15:48:54.112Z,98408.87
2017-12-10T15:51:21.655Z,98414.92
2017-12-10T15:53:49.158Z,98405.49
2017-12-10T15:56:16.661Z,98410.23
2017-12-10T15:58:44.170Z,98420.86
2017-12-10T16:01:11.678Z,98410.50
2017-12-10T16:03:39.180Z,98425.27
2017-12-10T16:06:06.684Z,98429.08
2017-12-10T16:08:34.181Z,98442.16
2017-12-10T16:11:01.711Z,98446.66
2017-12-10T16:13:29.264Z,98449.09
2017-12-10T16:15:56.794Z,98454.37
2017-12-10T16:18:24.305Z,98452.16
2017-12-10T16:20:51.826Z,98456.63
2017-12-10T16:23:19.342Z,98457.05
2017-12-10T16:25:46.855Z,98463.64
2017-12-10T16:28:14.386Z,98446.97
2017-12-10T16:30:41.902Z,98438.66
2017-12-10T16:33:09.412Z,98418.57
2017-12-10T16:35:36.919Z,98401.89
2017-12-10T16:38:04.422Z,98403.98
2017-12-10T16:40:31.930Z,98394.72
2017-12-10T16:42:59.444Z,98385.83
2017-12-10T16:45:26.961Z,98380.44
2017-12-10T16:47:54.468Z,98383.78
2017-12-10T16:50:21.977Z,98391.61
2017-12-10T16:52:49.489Z,98378.10
2017-12-10T16:55:17.014Z,98376.80
2017-12-10T16:57:44.529Z,98369.45
2017-12-10T17:00:12.040Z,98368.53
2017-12-10T17:02:39.559Z,98359.14
2017-12-10T17:05:07.057Z,98330.28
2017-12-10T17:07:34.568Z,98339.65
2017-12-10T17:10:02.079Z,98336.42
2017-12-10T17:12:29.602Z,98323.82
2017-12-10T17:14:57.122Z,98316.53
2017-12-10T17:17:24.634Z,98309.63
2017-12-10T17:19:52.139Z,98291.34
2017-12-10T17:22:19.716Z,98290.50
2017-12-10T17:24:47.234Z,98283.63
2017-12-10T17:27:14.786Z,98280.25
2017-12-10T17:29:42.311Z,98269.63
2017-12-10T17:32:09.817Z,98260.23
2017-12-10T17:34:37.334Z,98257.78
2017-12-10T17:37:04.855Z,98241.00
2017-12-10T17:39:32.392Z,98233.45
2017-12-10T17:41:59.909Z,98218.74
2017-12-10T17:44:27.416Z,98222.80
2017-12-10T17:46:54.930Z,98206.51
2017-12-10T17:49:22.437Z,98196.66
2017-12-10T17:51:49.952Z,98192.86
2017-12-10T17:54:17.472Z,98183.83
2017-12-10T17:56:45.010Z,98173.38
2017-12-10T17:59:12.524Z,98166.80
2017-12-10T18:01:40.048Z,98174.34
2017-12-10T18:04:07.557Z,98158.42
2017-12-10T18:06:35.058Z,98152.09
2017-12-10T18:09:02.570Z,98157.57
2017-12-10T18:11:30.079Z,98147.16
2017-12-10T18:13:57.588Z,98154.05
2017-12-10T18:16:25.093Z,98150.38
2017-12-10T18:18:52.606Z,98147.83
2017-12-10T18:21:20.128Z,98145.06
2017-12-10T18:23:47.642Z,98137.41
2017-12-10T18:26:15.157Z,98139.47
2017-12-10T18:28:42.678Z,98131.90
2017-12-10T18:31:10.197Z,98134.49
2017-12-10T18:33:37.791Z,98124.34
2017-12-10T18:36:05.305Z,98126.28
2017-12-10T18:38:32.814Z,98110.36
2017-12-10T18:41:00.329Z,98104.09
2017-12-10T18:43:27.844Z,98106.52
2017-12-10T18:45:55.358Z,98110.25
2017-12-10T18:48:22.866Z,98109.21
2017-12-10T18:50:50.377Z,98110.72
2017-12-10T18:53:18.174Z,98103.21
2017-12-10T18:55:45.685Z,98100.89
2017-12-10T18:58:14.078Z,98110.64
2017-12-10T19:00:41.584Z,98090.52
2017-12-10T19:03:09.263Z,98089.48
2017-12-10T19:05:36.787Z,98082.44
2017-12-10T19:08:04.314Z,98076.78
2017-12-10T19:10:31.838Z,98072.37
2017-12-10T19:12:59.354Z,98057.83
2017-12-10T19:15:26.877Z,98056.94
2017-12-10T19:17:54.923Z,98063.94
2017-12-10T19:20:22.443Z,98044.55
2017-12-10T19:22:49.965Z,98040.99
2017-12-10T19:25:17.475Z,98036.97
2017-12-10T19:27:44.991Z,98041.64
2017-12-10T19:30:12.741Z,98030.50
2017-12-10T19:32:40.258Z,98032.23
2017-12-10T19:35:07.773Z,98031.61
2017-12-10T19:37:35.278Z,98029.09
2017-12-10T19:40:02.794Z,98029.60
2017-12-10T19:42:30.306Z,98029.48
2017-12-10T19:44:57.816Z,98023.33
2017-12-10T19:47:25.628Z,98026.16
2017-12-10T19:49:53.146Z,98019.92
2017-12-10T19:52:20.661Z,98014.46
2017-12-10T19:54:48.174Z,98010.55
2017-12-10T19:57:15.697Z,98006.65
2017-12-10T19:59:43.210Z,98014.23
2017-12-10T20:02:11.385Z,98020.47
2017-12-10T20:04:38.902Z,98013.02
2017-12-10T20:07:06.417Z,98010.90
2017-12-10T20:09:33.920Z,98009.50
2017-12-10T20:12:01.435Z,98008.19
2017-12-10T20:17:21.197Z,98008.02
2017-12-10T20:19:48.724Z,98008.47
2017-12-10T20:22:16.241Z,98006.18
2017-12-10T20:24:43.889Z,97998.41
2017-12-10T20:27:11.469Z,97995.30
2017-12-10T20:29:38.998Z,97996.50
2017-12-10T20:32:06.513Z,97998.75
2017-12-10T20:34:34.030Z,98004.83
2017-12-10T20:37:01.554Z,97986.34
2017-12-10T20:39:29.074Z,97988.65
2017-12-10T20:41:56.594Z,97988.05
2017-12-10T20:44:24.214Z,97986.75
2017-12-10T20:46:51.755Z,97982.71
2017-12-10T20:49:19.274Z,97977.95
2017-12-10T20:51:46.793Z,97979.69
2017-12-10T20:54:14.315Z,97975.28
2017-12-10T20:56:41.826Z,97976.43
2017-12-10T20:59:09.353Z,97962.21
2017-12-10T21:01:36.866Z,97956.77
2017-12-10T21:04:04.391Z,97946.55
2017-12-10T21:06:31.915Z,97947.82
2017-12-10T21:08:59.438Z,97940.77
2017-12-10T21:11:26.962Z,97947.69
2017-12-10T21:13:54.489Z,97947.61
2017-12-10T21:16:22.013Z,97936.95
2017-12-10T21:18:49.533Z,97939.24
2017-12-10T21:21:17.049Z,97937.93
2017-12-10T21:23:44.582Z,97930.45
2017-12-10T21:26:12.114Z,97943.45
2017-12-10T21:28:39.640Z,97935.94
2017-12-10T21:31:07.165Z,97932.80
2017-12-10T21:33:34.686Z,97922.69
2017-12-10T21:36:02.195Z,97916.40
2017-12-10T21:38:29.704Z,97924.77
2017-12-10T21:40:57.206Z,97920.73
2017-12-10T21:43:24.749Z,97914.14
2017-12-10T21:45:52.281Z,97910.28
2017-12-10T21:48:19.812Z,97910.27
2017-12-10T21:50:47.329Z,97915.42
2017-12-10T21:53:14.885Z,97898.97
2017-12-10T21:55:42.497Z,97903.13
2017-12-10T21:58:10.023Z,97891.83
2017-12-10T22:00:37.559Z,97889.31
2017-12-10T22:03:05.057Z,97882.82
2017-12-10T22:05:32.593Z,97882.26
2017-12-10T22:08:00.122Z,97856.12
2017-12-10T22:10:27.640Z,97853.40
2017-12-10T22:12:55.150Z,97859.47
2017-12-10T22:15:22.668Z,97855.62
2017-12-10T22:17:50.180Z,97852.39
2017-12-10T22:20:17.715Z,97854.74
2017-12-10T22:22:45.231Z,97851.92
2017-12-10T22:25:12.752Z,97843.93
2017-12-10T22:27:40.264Z,97847.89
2017-12-10T22:30:07.779Z,97846.09
2017-12-10T22:32:35.293Z,97845.53
2017-12-10T22:35:02.816Z,97846.38
2017-12-10T22:37:30.333Z,97849.81
2017-12-10T22:39:57.840Z,97835.23
2017-12-10T22:42:25.386Z,97841.30
2017-12-10T22:44:52.901Z,97830.05
2017-12-10T22:47:20.432Z,97831.98
2017-12-10T22:49:47.949Z,97831.89
2017-12-10T22:52:15.488Z,97827.00
2017-12-10T22:54:43.002Z,97821.20
2017-12-10T22:57:10.513Z,97821.58
2017-12-10T22:59:38.035Z,97822.57
2017-12-10T23:02:05.558Z,97814.56
2017-12-10T23:04:33.084Z,97816.58
2017-12-10T23:07:00.590Z,97811.13
2017-12-10T23:09:28.104Z,97803.48
2017-12-10T23:11:55.613Z,97793.36
2017-12-10T23:14:23.122Z,97797.02
2017-12-10T23:16:50.640Z,97784.13
2017-12-10T23:19:18.171Z,97796.94
2017-12-10T23:21:45.690Z,97785.00
2017-12-10T23:24:13.200Z,97782.74
2017-12-10T23:26:40.708Z,97793.30
2017-12-10T23:29:08.222Z,97795.73
2017-12-10T23:31:35.738Z,97785.09
2017-12-10T23:34:03.240Z,97782.21
2017-12-10T23:36:30.754Z,97778.91
2017-12-10T23:38:58.262Z,97771.62
2017-12-10T23:41:25.766Z,97760.92
2017-12-10T23:43:53.274Z,97758.90
2017-12-10T23:46:20.791Z,97754.95
2017-12-10T23:48:48.304Z,97747.56
2017-12-10T23:51:15.827Z,97755.05
2017-12-10T23:53:43.339Z,97748.45
2017-12-10T23:56:10.853Z,97759.54
2017-12-10T23:58:38.365Z,97749.97
